Time;durP1;ratioP1;P1;durP2;ratioP2;P2;SDS_P1;SDS_P2;PMS_P1;PMS_P2;Temp;Humidity;BMP_temperature;BMP_pressure;BME280_temperature;BME280_humidity;BME280_pressure;Samples;Min_cycle;Max_cycle;Signal;HPM_P1;HPM_P2
2022/06/18 00:00:26;;;;;;;6.18;2.70;;;18.30;99.90;;;;;;5053228;28;20040;-64
2022/06/18 00:02:52;;;;;;;7.95;3.10;;;18.30;99.90;;;;;;5060781;28;20534;-70
2022/06/18 00:05:20;;;;;;;5.00;3.08;;;18.20;99.90;;;;;;5068188;28;20090;-60
2022/06/18 00:07:50;;;;;;;9.60;2.97;;;18.10;99.90;;;;;;5069074;28;20558;-59
2022/06/18 00:10:20;;;;;;;4.05;3.00;;;18.00;99.90;;;;;;5069026;28;20101;-67
2022/06/18 00:15:34;;;;;;;6.00;2.75;;;17.80;99.90;;;;;;5058478;28;20052;-67
2022/06/18 00:18:01;;;;;;;3.37;2.80;;;17.80;99.90;;;;;;5052464;28;20048;-69
2022/06/18 00:20:30;;;;;;;7.78;3.45;;;17.70;99.90;;;;;;5067349;28;20564;-63
2022/06/18 00:22:59;;;;;;;7.22;3.00;;;17.60;99.90;;;;;;5051350;28;20047;-63
2022/06/18 00:25:30;;;;;;;5.55;2.80;;;17.50;99.90;;;;;;5073829;28;20486;-63
2022/06/18 00:27:56;;;;;;;3.95;3.08;;;17.40;99.90;;;;;;5066879;28;20048;-64
2022/06/18 00:30:24;;;;;;;7.28;3.10;;;17.40;99.90;;;;;;5067986;28;20500;-68
2022/06/18 00:32:50;;;;;;;3.20;2.90;;;17.30;99.90;;;;;;5066903;28;20123;-68
2022/06/18 00:35:17;;;;;;;3.40;3.10;;;17.30;99.90;;;;;;5057836;28;20119;-63
2022/06/18 00:37:44;;;;;;;6.30;3.10;;;17.30;99.90;;;;;;5051336;28;20052;-70
2022/06/18 00:40:14;;;;;;;4.57;3.03;;;17.30;99.90;;;;;;5051705;28;20546;-69
2022/06/18 00:42:42;;;;;;;5.15;3.17;;;17.20;99.90;;;;;;5066553;28;20105;-62
2022/06/18 00:45:13;;;;;;;10.23;3.08;;;17.20;99.90;;;;;;5066790;28;20048;-68
2022/06/18 00:48:27;;;;;;;11.30;3.10;;;17.20;99.90;;;;;;5051293;28;20493;-71
2022/06/18 00:51:09;;;;;;;4.40;2.90;;;17.20;99.90;;;;;;5048321;28;20052;-66
2022/06/18 00:53:47;;;;;;;3.97;2.72;;;17.20;99.90;;;;;;5067802;28;20520;-66
2022/06/18 00:56:25;;;;;;;6.93;2.83;;;17.10;99.90;;;;;;5084213;28;20052;-70
2022/06/18 00:59:00;;;;;;;10.27;2.70;;;17.10;99.90;;;;;;5066017;28;20365;-64
2022/06/18 01:01:37;;;;;;;5.20;2.78;;;17.10;99.90;;;;;;5065050;28;20044;-68
2022/06/18 01:04:23;;;;;;;3.75;2.30;;;17.20;99.90;;;;;;5047934;28;20052;-69
2022/06/18 01:06:50;;;;;;;6.10;2.72;;;17.20;99.90;;;;;;5065846;28;20050;-68
2022/06/18 01:09:18;;;;;;;4.20;2.88;;;17.20;99.90;;;;;;5067715;28;20494;-65
2022/06/18 01:11:46;;;;;;;3.40;2.80;;;17.20;99.90;;;;;;5067664;28;20054;-71
2022/06/18 01:14:15;;;;;;;3.35;2.40;;;17.40;99.90;;;;;;5068101;28;20172;-67
2022/06/18 01:16:41;;;;;;;5.95;2.78;;;17.50;99.90;;;;;;5064208;28;20052;-62
2022/06/18 01:19:15;;;;;;;4.95;2.50;;;17.60;99.90;;;;;;5048257;28;20052;-62
2022/06/18 01:21:56;;;;;;;4.68;3.17;;;17.80;99.90;;;;;;5068908;28;20036;-62
2022/06/18 01:24:31;;;;;;;3.90;2.90;;;18.00;99.90;;;;;;5066263;28;20071;-61
2022/06/18 01:26:57;;;;;;;3.38;3.08;;;18.00;99.90;;;;;;5049396;28;20518;-62
2022/06/18 01:29:23;;;;;;;6.10;3.28;;;18.10;99.90;;;;;;5065303;28;20051;-62
2022/06/18 01:31:51;;;;;;;5.93;3.28;;;18.10;99.90;;;;;;5067172;28;20036;-68
2022/06/18 01:34:17;;;;;;;7.05;3.22;;;18.10;99.90;;;;;;5050864;28;20044;-61
2022/06/18 01:36:44;;;;;;;6.70;2.92;;;18.10;99.90;;;;;;5063973;28;20083;-62
2022/06/18 01:39:14;;;;;;;5.93;3.30;;;18.00;99.90;;;;;;5067220;28;20055;-69
2022/06/18 01:41:51;;;;;;;4.70;3.35;;;18.00;99.90;;;;;;5066067;28;20123;-71
2022/06/18 01:44:35;;;;;;;5.32;2.92;;;18.00;99.90;;;;;;5067655;28;20044;-69
2022/06/18 01:47:22;;;;;;;9.50;3.15;;;18.00;99.90;;;;;;5055240;28;20063;-63
2022/06/18 01:49:50;;;;;;;4.10;3.40;;;18.10;99.90;;;;;;5067571;28;20397;-67
2022/06/18 01:52:20;;;;;;;5.00;3.35;;;18.10;99.90;;;;;;5065646;28;20102;-63
2022/06/18 01:54:52;;;;;;;5.32;3.28;;;18.20;99.90;;;;;;5047422;28;20134;-67
2022/06/18 01:57:28;;;;;;;5.60;3.63;;;18.20;99.90;;;;;;5046313;28;20182;-69
2022/06/18 02:00:02;;;;;;;6.60;3.53;;;18.20;99.90;;;;;;5054306;28;20052;-61
2022/06/18 02:02:28;;;;;;;6.85;3.47;;;18.30;99.90;;;;;;5065702;28;20663;-69
2022/06/18 02:04:53;;;;;;;4.35;3.38;;;18.30;99.90;;;;;;5067422;28;20052;-63
2022/06/18 02:07:20;;;;;;;6.57;3.50;;;18.30;99.90;;;;;;5065620;28;20048;-70
2022/06/18 02:10:01;;;;;;;5.35;3.05;;;18.30;99.90;;;;;;5068586;28;20047;-61
2022/06/18 02:12:36;;;;;;;7.90;3.70;;;18.30;99.90;;;;;;5050241;28;20044;-69
2022/06/18 02:15:27;;;;;;;11.82;3.78;;;18.30;99.90;;;;;;5062833;28;20491;-70
2022/06/18 02:17:58;;;;;;;7.05;3.35;;;18.40;99.90;;;;;;5066256;28;20043;-66
2022/06/18 02:20:27;;;;;;;6.07;3.40;;;18.40;99.90;;;;;;5065843;28;20056;-69
2022/06/18 02:22:55;;;;;;;6.50;3.90;;;18.40;99.90;;;;;;5066810;28;20502;-67
2022/06/18 02:25:24;;;;;;;11.30;3.42;;;18.50;99.90;;;;;;5048340;28;20051;-64
2022/06/18 02:27:56;;;;;;;5.45;3.75;;;18.50;99.90;;;;;;5066980;28;20048;-63
2022/06/18 02:30:26;;;;;;;9.60;3.78;;;18.60;99.90;;;;;;5065830;28;20067;-67
2022/06/18 02:33:24;;;;;;;8.68;3.90;;;18.60;99.90;;;;;;5049318;28;20047;-69
2022/06/18 02:35:50;;;;;;;8.18;4.10;;;18.70;99.90;;;;;;5000949;28;20059;-62
2022/06/18 02:38:21;;;;;;;8.65;4.28;;;18.70;99.90;;;;;;5065360;28;20051;-67
2022/06/18 02:40:46;;;;;;;7.72;4.30;;;18.70;99.90;;;;;;5054495;28;20044;-63
2022/06/18 02:43:14;;;;;;;8.70;3.63;;;18.70;99.90;;;;;;5037290;28;20443;-66
2022/06/18 02:45:40;;;;;;;7.50;4.57;;;18.60;99.90;;;;;;5063313;28;21292;-67
2022/06/18 02:48:10;;;;;;;5.80;4.40;;;18.60;99.90;;;;;;5067399;28;20105;-67
2022/06/18 02:50:40;;;;;;;14.60;4.75;;;18.60;99.90;;;;;;5053456;28;20130;-65
2022/06/18 02:53:11;;;;;;;7.47;4.75;;;18.70;99.90;;;;;;5070031;28;20490;-65
2022/06/18 02:55:44;;;;;;;5.28;4.78;;;18.70;99.90;;;;;;5052287;28;20044;-62
2022/06/18 02:58:19;;;;;;;12.65;5.00;;;18.70;99.90;;;;;;5072133;28;20040;-61
2022/06/18 03:00:53;;;;;;;8.35;4.85;;;18.70;99.90;;;;;;5070641;28;20051;-64
2022/06/18 03:03:20;;;;;;;7.45;4.43;;;18.70;99.90;;;;;;5068441;28;20057;-65
2022/06/18 03:05:46;;;;;;;8.30;5.18;;;18.70;99.90;;;;;;5068724;28;20576;-66
2022/06/18 03:08:13;;;;;;;11.75;5.53;;;18.80;99.90;;;;;;5069754;28;20052;-71
2022/06/18 03:13:23;;;;;;;11.60;5.32;;;18.70;99.90;;;;;;5068297;28;20083;-61
2022/06/18 03:15:53;;;;;;;13.80;6.20;;;18.70;99.90;;;;;;5087347;28;20095;-67
2022/06/18 03:18:21;;;;;;;9.45;5.90;;;18.70;99.90;;;;;;5069423;28;20044;-64
2022/06/18 03:21:21;;;;;;;10.60;6.13;;;18.70;99.90;;;;;;5069862;28;20483;-60
2022/06/18 03:23:47;;;;;;;10.95;6.60;;;18.60;99.90;;;;;;5069797;28;20048;-65
2022/06/18 03:26:16;;;;;;;12.40;6.18;;;18.50;99.90;;;;;;5063256;28;20077;-64
2022/06/18 03:28:42;;;;;;;10.48;6.40;;;18.50;99.90;;;;;;5068797;28;20491;-63
2022/06/18 03:31:08;;;;;;;11.50;6.75;;;18.40;99.90;;;;;;5069865;28;20055;-67
2022/06/18 03:33:34;;;;;;;14.27;7.35;;;18.30;99.90;;;;;;5069878;28;20032;-66
2022/06/18 03:36:02;;;;;;;14.10;6.95;;;18.10;99.90;;;;;;5069855;28;20135;-71
2022/06/18 03:38:28;;;;;;;13.65;7.28;;;18.10;99.90;;;;;;5052365;28;20964;-62
2022/06/18 03:40:53;;;;;;;13.02;6.80;;;18.00;99.90;;;;;;5069349;28;20109;-65
2022/06/18 03:43:20;;;;;;;11.65;6.88;;;17.90;99.90;;;;;;5051330;28;20073;-67
2022/06/18 03:45:50;;;;;;;18.52;7.97;;;17.90;99.90;;;;;;5067902;28;20097;-69
2022/06/18 03:48:22;;;;;;;13.65;8.00;;;17.80;99.90;;;;;;5052901;28;20052;-68
2022/06/18 03:50:49;;;;;;;13.18;7.43;;;17.80;99.90;;;;;;5070033;28;20056;-67
2022/06/18 03:53:15;;;;;;;18.77;8.07;;;17.80;99.90;;;;;;5069407;28;20410;-64
2022/06/18 03:55:41;;;;;;;17.00;7.75;;;17.80;99.90;;;;;;5066810;28;20067;-69
2022/06/18 03:58:06;;;;;;;15.52;7.80;;;17.80;99.90;;;;;;5069124;28;20386;-66
2022/06/18 04:00:32;;;;;;;17.92;8.55;;;17.80;99.90;;;;;;5067019;28;20040;-65
2022/06/18 04:02:59;;;;;;;18.42;8.82;;;17.80;99.90;;;;;;5051852;28;20047;-69
2022/06/18 04:05:25;;;;;;;16.65;8.30;;;17.80;99.90;;;;;;5067218;28;20051;-64
2022/06/18 04:07:50;;;;;;;21.60;8.40;;;17.80;99.90;;;;;;5066797;28;20040;-65
2022/06/18 04:10:19;;;;;;;20.60;8.48;;;17.70;99.90;;;;;;5052470;28;20101;-66
2022/06/18 04:12:46;;;;;;;18.80;8.53;;;17.70;99.90;;;;;;5067775;28;20434;-65
2022/06/18 04:15:13;;;;;;;19.77;8.13;;;17.70;99.90;;;;;;5069077;28;20067;-66
2022/06/18 04:17:40;;;;;;;17.17;8.43;;;17.70;99.90;;;;;;5033215;28;20070;-67
2022/06/18 04:20:06;;;;;;;19.40;9.95;;;17.70;99.90;;;;;;5069919;28;20130;-66
2022/06/18 04:22:32;;;;;;;21.88;10.45;;;17.70;99.90;;;;;;5050697;28;20063;-70
2022/06/18 04:24:58;;;;;;;19.88;9.77;;;17.70;99.90;;;;;;5069193;28;20464;-61
2022/06/18 04:27:23;;;;;;;22.30;9.10;;;17.60;99.90;;;;;;5065601;28;20059;-64
2022/06/18 04:29:49;;;;;;;20.23;8.50;;;17.60;99.90;;;;;;5066821;28;20066;-66
2022/06/18 04:32:15;;;;;;;23.65;8.75;;;17.60;99.90;;;;;;5068627;28;20052;-65
2022/06/18 04:34:40;;;;;;;22.40;8.73;;;17.60;99.90;;;;;;5066649;28;20493;-67
2022/06/18 04:37:06;;;;;;;19.63;9.15;;;17.60;99.90;;;;;;5051645;28;20086;-67
2022/06/18 04:39:32;;;;;;;26.52;8.43;;;17.60;99.90;;;;;;5065111;28;20059;-71
2022/06/18 04:41:58;;;;;;;22.48;9.32;;;17.70;99.90;;;;;;5052062;28;20122;-66
2022/06/18 04:44:24;;;;;;;20.42;9.50;;;17.70;99.90;;;;;;5066638;28;20093;-68
2022/06/18 04:46:50;;;;;;;25.17;9.50;;;17.70;99.90;;;;;;5034290;28;20040;-69
2022/06/18 04:49:15;;;;;;;24.50;9.85;;;17.80;99.90;;;;;;5067927;28;20048;-62
2022/06/18 04:51:41;;;;;;;26.13;10.32;;;17.90;99.90;;;;;;5066462;28;20044;-61
2022/06/18 04:54:07;;;;;;;24.35;9.82;;;17.90;99.90;;;;;;5069605;28;20479;-70
2022/06/18 04:56:33;;;;;;;18.45;9.20;;;17.90;99.90;;;;;;5065661;28;20040;-65
2022/06/18 04:58:58;;;;;;;19.33;9.75;;;18.00;99.90;;;;;;5034993;28;20059;-66
2022/06/18 05:01:29;;;;;;;17.85;9.15;;;18.00;99.90;;;;;;5049748;28;20391;-70
2022/06/18 05:03:55;;;;;;;25.02;10.18;;;18.10;99.90;;;;;;5064309;28;20056;-63
2022/06/18 05:06:21;;;;;;;22.25;9.70;;;18.20;99.90;;;;;;5051187;28;20071;-63
2022/06/18 05:08:47;;;;;;;18.30;9.13;;;18.50;99.90;;;;;;5065970;28;20055;-67
2022/06/18 05:11:12;;;;;;;21.25;9.18;;;18.70;99.90;;;;;;5067838;28;20048;-69
2022/06/18 05:13:38;;;;;;;20.73;9.95;;;18.70;99.90;;;;;;5056035;28;20121;-62
2022/06/18 05:16:06;;;;;;;20.00;10.10;;;18.70;99.90;;;;;;5052692;28;20051;-71
2022/06/18 05:18:33;;;;;;;21.90;9.60;;;18.60;99.90;;;;;;5067090;28;20067;-67
2022/06/18 05:20:59;;;;;;;19.63;10.15;;;18.60;99.90;;;;;;5068327;28;20067;-66
2022/06/18 05:23:26;;;;;;;23.20;9.68;;;18.50;99.90;;;;;;5046787;28;20036;-66
2022/06/18 05:25:58;;;;;;;18.35;9.18;;;18.50;99.90;;;;;;5062632;28;20142;-69
2022/06/18 05:28:25;;;;;;;22.20;8.50;;;18.50;99.90;;;;;;5051033;28;20052;-67
2022/06/18 05:30:51;;;;;;;27.08;10.30;;;18.50;99.90;;;;;;5065835;28;20132;-62
2022/06/18 05:33:17;;;;;;;27.20;9.82;;;18.50;99.90;;;;;;5067019;28;20066;-66
2022/06/18 05:35:43;;;;;;;24.20;9.80;;;18.60;99.90;;;;;;5062255;28;20486;-62
2022/06/18 05:38:15;;;;;;;24.77;9.23;;;18.60;99.90;;;;;;5082824;28;20059;-68
2022/06/18 05:40:40;;;;;;;18.95;7.25;;;18.70;99.90;;;;;;5065068;28;20094;-71
2022/06/18 05:43:06;;;;;;;16.52;7.07;;;18.70;99.90;;;;;;5038939;28;20076;-67
2022/06/18 05:45:32;;;;;;;31.40;8.30;;;18.80;99.90;;;;;;5049374;28;20145;-66
2022/06/18 05:47:58;;;;;;;21.38;7.85;;;18.80;99.90;;;;;;5047010;28;20585;-62
2022/06/18 05:50:25;;;;;;;23.00;9.40;;;18.80;99.90;;;;;;5033877;28;20135;-68
2022/06/18 05:52:51;;;;;;;25.67;9.32;;;18.80;99.90;;;;;;5048553;28;20504;-61
2022/06/18 05:55:20;;;;;;;25.85;8.80;;;18.70;99.90;;;;;;5062877;28;20036;-65
2022/06/18 05:57:52;;;;;;;19.35;7.93;;;18.70;99.90;;;;;;5045143;28;20548;-65
2022/06/18 06:00:21;;;;;;;20.20;7.78;;;18.70;99.90;;;;;;5063601;28;20047;-66
2022/06/18 06:02:48;;;;;;;17.65;8.13;;;18.80;99.90;;;;;;5065723;28;20525;-60
2022/06/18 06:05:15;;;;;;;20.98;8.40;;;18.80;99.90;;;;;;5058775;28;20530;-68
2022/06/18 06:07:42;;;;;;;18.45;7.97;;;18.80;99.90;;;;;;5073998;28;20048;-64
2022/06/18 06:13:09;;;;;;;25.58;9.25;;;18.80;99.90;;;;;;5070184;28;20051;-63
2022/06/18 06:15:36;;;;;;;25.70;8.10;;;18.90;99.90;;;;;;5071679;28;20048;-60
2022/06/18 06:18:02;;;;;;;16.85;7.60;;;18.90;99.90;;;;;;5053042;28;20078;-67
2022/06/18 06:20:31;;;;;;;19.52;7.53;;;18.90;99.90;;;;;;5072210;28;20483;-66
2022/06/18 06:22:58;;;;;;;19.00;7.60;;;18.90;99.90;;;;;;5066216;28;20044;-64
2022/06/18 06:25:23;;;;;;;22.65;7.95;;;19.00;99.90;;;;;;5069878;28;20105;-68
2022/06/18 06:27:49;;;;;;;29.98;8.10;;;19.10;99.90;;;;;;5066382;28;20052;-67
2022/06/18 06:30:16;;;;;;;15.75;6.90;;;19.20;99.90;;;;;;5039287;28;20128;-62
2022/06/18 06:32:43;;;;;;;20.75;6.80;;;19.20;99.90;;;;;;5065884;28;20048;-60
2022/06/18 06:35:10;;;;;;;21.77;6.10;;;19.20;99.90;;;;;;5050554;28;20166;-67
2022/06/18 06:37:36;;;;;;;15.95;5.93;;;19.20;99.90;;;;;;5046988;28;20119;-67
2022/06/18 06:40:02;;;;;;;16.88;5.68;;;19.30;99.90;;;;;;5068581;28;20130;-69
2022/06/18 06:42:28;;;;;;;17.40;6.55;;;19.40;99.90;;;;;;5037819;28;20597;-65
2022/06/18 06:44:54;;;;;;;21.08;5.55;;;19.50;99.90;;;;;;5018015;28;20139;-71
2022/06/18 06:47:20;;;;;;;15.73;5.43;;;19.60;99.90;;;;;;5055432;28;20391;-72
2022/06/18 06:49:46;;;;;;;11.23;4.95;;;19.70;99.90;;;;;;5051936;28;20044;-63
2022/06/18 06:52:12;;;;;;;17.98;5.85;;;19.80;99.90;;;;;;5071365;28;20085;-68
2022/06/18 06:54:38;;;;;;;22.48;7.30;;;19.90;99.90;;;;;;5088094;28;20076;-60
2022/06/18 06:57:23;;;;;;;16.73;4.95;;;20.00;99.90;;;;;;5068673;28;20071;-63
2022/06/18 06:59:49;;;;;;;15.15;5.28;;;20.00;99.90;;;;;;5071694;28;20089;-63
2022/06/18 07:02:21;;;;;;;17.70;5.80;;;20.00;99.90;;;;;;5064479;28;20036;-65
2022/06/18 07:04:47;;;;;;;17.00;4.82;;;20.00;99.90;;;;;;5067850;28;20044;-63
2022/06/18 07:07:14;;;;;;;15.70;5.70;;;20.20;99.90;;;;;;5064233;28;20047;-61
2022/06/18 07:09:40;;;;;;;17.95;5.90;;;20.40;99.90;;;;;;5052004;28;20467;-70
2022/06/18 07:12:08;;;;;;;12.95;5.07;;;20.50;99.90;;;;;;5070838;28;20085;-65
2022/06/18 07:14:35;;;;;;;18.85;5.60;;;20.60;99.90;;;;;;5068069;28;20048;-70
2022/06/18 07:17:01;;;;;;;18.13;4.70;;;20.70;99.90;;;;;;5071662;28;20056;-66
2022/06/18 07:19:27;;;;;;;13.52;4.78;;;20.90;99.90;;;;;;5069705;28;20040;-62
2022/06/18 07:21:53;;;;;;;20.80;5.35;;;21.00;99.90;;;;;;5071306;28;20040;-62
2022/06/18 07:24:20;;;;;;;10.98;4.53;;;21.20;99.90;;;;;;5070114;28;20048;-61
2022/06/18 07:26:46;;;;;;;15.15;4.55;;;21.30;99.90;;;;;;5088569;28;20036;-68
2022/06/18 07:29:13;;;;;;;12.93;3.08;;;21.40;99.90;;;;;;5054886;28;20044;-66
2022/06/18 07:31:40;;;;;;;10.52;2.70;;;21.60;99.90;;;;;;5087621;28;20044;-72
2022/06/18 07:34:06;;;;;;;13.35;4.25;;;21.80;99.90;;;;;;5071783;28;20142;-66
2022/06/18 07:36:33;;;;;;;7.05;2.78;;;21.90;99.90;;;;;;5058508;28;20127;-67
2022/06/18 07:39:01;;;;;;;10.25;2.92;;;21.90;99.90;;;;;;5071169;28;20691;-65
2022/06/18 07:41:35;;;;;;;11.80;2.92;;;22.00;99.90;;;;;;5088091;28;20044;-60
2022/06/18 07:44:02;;;;;;;11.27;3.38;;;22.00;99.90;;;;;;5087824;28;20113;-64
2022/06/18 07:46:28;;;;;;;13.18;3.38;;;22.20;99.90;;;;;;5062053;28;20040;-69
2022/06/18 07:48:54;;;;;;;13.25;3.60;;;22.30;99.90;;;;;;5069309;28;20059;-65
2022/06/18 07:51:20;;;;;;;17.08;3.85;;;22.20;99.90;;;;;;5071003;28;20051;-71
2022/06/18 07:53:46;;;;;;;11.80;3.45;;;22.20;99.90;;;;;;5068854;28;20047;-62
2022/06/18 07:56:15;;;;;;;12.75;3.08;;;22.20;99.90;;;;;;5069503;28;20052;-69
2022/06/18 07:58:42;;;;;;;8.32;2.97;;;22.20;99.90;;;;;;5052789;28;20375;-66
2022/06/18 08:01:08;;;;;;;12.85;3.17;;;22.50;99.90;;;;;;5050378;28;20068;-62
2022/06/18 08:03:35;;;;;;;10.35;3.10;;;22.40;99.90;;;;;;5064798;28;20074;-61
2022/06/18 08:06:02;;;;;;;8.43;3.30;;;22.50;99.90;;;;;;5068836;28;20080;-65
2022/06/18 08:08:28;;;;;;;17.10;3.58;;;22.40;99.90;;;;;;5069216;28;20110;-69
2022/06/18 08:10:54;;;;;;;11.63;2.72;;;22.40;99.90;;;;;;5045562;28;20111;-68
2022/06/18 08:13:21;;;;;;;11.15;3.42;;;22.30;99.90;;;;;;5046640;28;20109;-72
2022/06/18 08:15:47;;;;;;;10.00;2.90;;;22.20;99.90;;;;;;5033491;28;20043;-67
2022/06/18 08:18:13;;;;;;;13.15;3.28;;;22.10;99.90;;;;;;5039487;28;20036;-63
2022/06/18 08:20:39;;;;;;;8.77;3.25;;;22.10;99.90;;;;;;5050326;28;20039;-60
2022/06/18 08:23:06;;;;;;;10.50;3.10;;;22.20;99.90;;;;;;5064930;28;20087;-65
2022/06/18 08:25:32;;;;;;;9.85;3.15;;;22.40;99.90;;;;;;5060385;28;20063;-68
2022/06/18 08:28:02;;;;;;;11.30;3.30;;;22.40;99.90;;;;;;5049077;28;20074;-67
2022/06/18 08:30:29;;;;;;;12.13;3.13;;;22.50;99.90;;;;;;5070269;28;20044;-71
2022/06/18 08:32:55;;;;;;;10.40;3.33;;;22.40;99.90;;;;;;5068114;28;20060;-68
2022/06/18 08:35:21;;;;;;;7.43;3.03;;;22.30;99.90;;;;;;5069243;28;20482;-68
2022/06/18 08:37:47;;;;;;;6.25;2.70;;;22.10;99.90;;;;;;5067592;28;20043;-61
2022/06/18 08:40:36;;;;;;;9.57;3.15;;;22.20;99.90;;;;;;5068874;28;20126;-63
2022/06/18 08:43:34;;;;;;;6.18;2.30;;;22.20;99.90;;;;;;5050472;28;20066;-62
2022/06/18 08:46:18;;;;;;;7.05;3.00;;;22.30;99.90;;;;;;5023838;28;20680;-71
2022/06/18 08:48:47;;;;;;;10.10;2.22;;;22.20;99.90;;;;;;5068748;28;20056;-63
2022/06/18 08:51:25;;;;;;;11.27;2.50;;;22.10;99.90;;;;;;5064400;28;20048;-66
2022/06/18 08:54:03;;;;;;;7.32;2.75;;;22.30;99.90;;;;;;5063947;28;20613;-62
2022/06/18 08:56:49;;;;;;;10.75;3.22;;;22.20;99.90;;;;;;5050084;28;20491;-63
2022/06/18 08:59:36;;;;;;;11.95;3.33;;;22.10;99.90;;;;;;5035137;28;20387;-60
2022/06/18 09:02:24;;;;;;;9.32;2.90;;;22.20;99.90;;;;;;5065582;28;20048;-63
2022/06/18 09:05:20;;;;;;;11.37;2.77;;;22.20;99.90;;;;;;5052151;28;20487;-65
2022/06/18 09:08:07;;;;;;;9.68;2.55;;;22.10;99.90;;;;;;5049887;28;20047;-72
2022/06/18 09:10:50;;;;;;;8.32;2.60;;;22.20;99.90;;;;;;5049329;28;20529;-67
2022/06/18 09:13:41;;;;;;;8.48;2.60;;;21.90;99.90;;;;;;5049199;28;20048;-67
2022/06/18 09:16:10;;;;;;;6.00;2.30;;;22.00;99.90;;;;;;5033834;28;20044;-65
2022/06/18 09:18:49;;;;;;;4.53;1.88;;;21.80;99.90;;;;;;5065193;28;20055;-69
2022/06/18 09:21:25;;;;;;;7.80;2.20;;;21.70;99.90;;;;;;5043433;28;20044;-60
2022/06/18 09:23:58;;;;;;;6.65;1.50;;;21.80;99.90;;;;;;5064906;28;20039;-62
2022/06/18 09:26:37;;;;;;;4.97;2.05;;;21.70;99.90;;;;;;5057724;28;20052;-63
2022/06/18 09:29:35;;;;;;;5.57;1.92;;;21.70;99.90;;;;;;5067177;28;20104;-63
2022/06/18 09:32:07;;;;;;;7.88;1.85;;;21.70;99.90;;;;;;5034490;28;20060;-63
2022/06/18 09:34:49;;;;;;;4.40;1.20;;;21.60;99.90;;;;;;5066418;28;20047;-61
2022/06/18 09:37:48;;;;;;;7.28;1.55;;;21.60;99.90;;;;;;5067561;28;20058;-65
2022/06/18 09:40:27;;;;;;;1.92;1.05;;;21.50;99.90;;;;;;5059839;28;20048;-65
2022/06/18 09:43:11;;;;;;;2.78;0.98;;;21.30;99.90;;;;;;5050976;28;20039;-59
2022/06/18 09:45:45;;;;;;;3.55;1.30;;;21.20;99.90;;;;;;5057928;28;20088;-66
2022/06/18 09:48:12;;;;;;;4.10;1.15;;;21.30;99.90;;;;;;5067589;28;20056;-62
2022/06/18 09:50:49;;;;;;;5.28;1.38;;;21.40;99.90;;;;;;5066068;28;20048;-60
2022/06/18 09:53:33;;;;;;;2.05;0.93;;;21.60;99.90;;;;;;5066060;28;20113;-66
2022/06/18 09:56:01;;;;;;;3.22;1.20;;;21.50;99.90;;;;;;5068691;28;20051;-58
2022/06/18 09:58:32;;;;;;;3.25;1.42;;;21.40;99.90;;;;;;5067086;28;20448;-60
2022/06/18 10:00:59;;;;;;;4.75;1.30;;;21.30;99.90;;;;;;5051856;28;20091;-62
2022/06/18 10:09:05;;;;;;;7.47;1.48;;;21.30;99.90;;;;;;5073336;28;20108;-65
2022/06/18 10:11:32;;;;;;;6.75;1.55;;;21.20;99.90;;;;;;5067259;28;20051;-67
2022/06/18 10:14:15;;;;;;;4.10;1.10;;;21.00;99.90;;;;;;5063178;28;20162;-64
2022/06/18 10:16:40;;;;;;;2.58;1.05;;;21.00;99.90;;;;;;5063960;28;20531;-68
2022/06/18 10:19:21;;;;;;;4.78;1.25;;;21.00;99.90;;;;;;5065271;28;20135;-67
2022/06/18 10:22:22;;;;;;;2.58;1.20;;;20.90;99.90;;;;;;5065460;28;20052;-61
2022/06/18 10:25:06;;;;;;;3.38;1.30;;;20.90;99.90;;;;;;4991136;28;20050;-71
2022/06/18 10:27:35;;;;;;;3.47;1.33;;;21.00;99.90;;;;;;5059505;28;20110;-72
2022/06/18 10:30:09;;;;;;;4.45;1.10;;;21.10;99.90;;;;;;5047524;28;20486;-61
2022/06/18 10:32:47;;;;;;;2.20;0.88;;;21.10;99.90;;;;;;5063944;28;20043;-64
2022/06/18 10:35:24;;;;;;;2.80;1.30;;;21.00;99.90;;;;;;5053413;28;20067;-66
2022/06/18 10:38:02;;;;;;;2.15;1.25;;;21.20;99.90;;;;;;5063277;28;20045;-66
2022/06/18 10:40:46;;;;;;;3.10;1.38;;;21.20;99.90;;;;;;5065126;28;20053;-67
2022/06/18 10:43:21;;;;;;;4.32;1.38;;;21.10;99.90;;;;;;5063647;28;20111;-72
2022/06/18 10:46:02;;;;;;;5.45;1.20;;;21.20;99.90;;;;;;5056501;28;20052;-68
2022/06/18 10:48:31;;;;;;;2.80;0.90;;;21.20;99.90;;;;;;5064633;28;20052;-65
2022/06/18 10:50:59;;;;;;;4.97;1.27;;;21.00;99.90;;;;;;5063022;28;20045;-71
2022/06/18 10:53:50;;;;;;;2.90;1.50;;;21.00;99.90;;;;;;5066295;28;20051;-67
2022/06/18 10:56:52;;;;;;;4.00;1.08;;;20.80;99.90;;;;;;5040736;28;20045;-62
2022/06/18 10:59:32;;;;;;;3.33;1.50;;;20.80;99.90;;;;;;5065333;28;20124;-64
2022/06/18 11:02:12;;;;;;;4.38;1.23;;;20.90;99.90;;;;;;5068056;28;20525;-64
2022/06/18 11:04:39;;;;;;;4.35;1.27;;;21.10;99.90;;;;;;5066765;28;20490;-61
2022/06/18 11:07:07;;;;;;;2.60;1.10;;;21.00;99.90;;;;;;5048699;28;20048;-72
2022/06/18 11:09:53;;;;;;;2.90;1.00;;;21.10;99.90;;;;;;5057885;28;20074;-66
2022/06/18 11:12:34;;;;;;;2.35;1.20;;;21.00;99.90;;;;;;5066132;28;20044;-61
2022/06/18 11:15:00;;;;;;;2.72;1.00;;;21.10;99.90;;;;;;5085048;28;20044;-67
2022/06/18 11:17:41;;;;;;;1.30;0.90;;;21.30;99.90;;;;;;5065892;28;20051;-63
2022/06/18 11:20:22;;;;;;;3.95;1.00;;;21.30;99.90;;;;;;5051385;28;20533;-60
2022/06/18 11:23:01;;;;;;;3.97;1.45;;;21.40;99.90;;;;;;5055096;28;20050;-64
2022/06/18 11:25:26;;;;;;;;;;;21.40;99.90;;;;;;5066867;28;20048;-61
2022/06/18 11:28:01;;;;;;;3.40;1.25;;;21.40;99.90;;;;;;5071549;28;20553;-61
2022/06/18 11:30:42;;;;;;;3.97;1.35;;;21.30;99.90;;;;;;5070232;28;20438;-62
2022/06/18 11:33:26;;;;;;;4.90;1.35;;;21.30;99.90;;;;;;5046264;28;20059;-69
2022/06/18 11:35:52;;;;;;;9.15;1.50;;;21.00;99.90;;;;;;5062692;28;20043;-67
2022/06/18 11:38:29;;;;;;;2.50;1.17;;;20.80;99.90;;;;;;5069062;28;20040;-71
2022/06/18 11:41:12;;;;;;;4.22;1.45;;;20.70;99.90;;;;;;5041666;28;20135;-64
2022/06/18 11:43:51;;;;;;;3.92;1.30;;;20.80;99.90;;;;;;5065738;28;20076;-60
2022/06/18 11:46:40;;;;;;;;;;;20.80;99.90;;;;;;5045627;28;20053;-69
2022/06/18 11:49:08;;;;;;;;;;;20.80;99.90;;;;;;5028339;28;19972;-73
2022/06/18 11:51:46;;;;;;;4.90;1.50;;;20.60;99.90;;;;;;5069297;28;19924;-65
2022/06/18 11:54:53;;;;;;;6.00;1.30;;;20.60;99.90;;;;;;5070291;28;20475;-66
2022/06/18 11:57:29;;;;;;;2.53;1.10;;;20.40;99.90;;;;;;5009100;28;20061;-62
2022/06/18 12:00:06;;;;;;;5.68;1.65;;;20.40;99.90;;;;;;5069219;28;20044;-62
2022/06/18 12:02:42;;;;;;;5.05;1.40;;;20.30;99.90;;;;;;5088911;28;20079;-62
2022/06/18 12:05:44;;;;;;;4.57;1.20;;;20.10;99.90;;;;;;5069548;28;20474;-60
2022/06/18 12:08:17;;;;;;;4.15;0.93;;;20.10;99.90;;;;;;5061754;28;20486;-63
2022/06/18 12:10:54;;;;;;;4.07;1.23;;;20.00;99.90;;;;;;5069130;28;20521;-67
2022/06/18 12:13:35;;;;;;;7.50;1.20;;;20.00;99.90;;;;;;5048908;28;20052;-63
2022/06/18 12:16:22;;;;;;;6.97;1.20;;;19.80;99.90;;;;;;5070090;28;20247;-65
2022/06/18 12:19:29;;;;;;;4.50;1.30;;;19.80;99.90;;;;;;5086984;28;20055;-66
2022/06/18 12:22:34;;;;;;;4.80;0.98;;;19.90;99.90;;;;;;5042177;28;20046;-62
2022/06/18 12:25:22;;;;;;;2.78;1.08;;;20.00;99.90;;;;;;5028375;28;20143;-63
2022/06/18 12:28:13;;;;;;;4.13;1.35;;;20.20;99.90;;;;;;5051735;28;20609;-70
2022/06/18 12:30:58;;;;;;;6.95;1.58;;;20.40;99.90;;;;;;5052329;28;20062;-57
2022/06/18 12:33:33;;;;;;;3.83;1.40;;;20.40;99.90;;;;;;5055830;28;20043;-66
2022/06/18 12:36:13;;;;;;;5.45;1.48;;;20.50;99.90;;;;;;5070444;28;20040;-68
2022/06/18 12:38:51;;;;;;;3.80;1.30;;;20.40;99.90;;;;;;5067747;28;20044;-62
2022/06/18 12:41:41;;;;;;;7.80;1.83;;;20.40;99.90;;;;;;5069591;28;20047;-70
2022/06/18 12:44:30;;;;;;;6.68;1.63;;;20.40;99.90;;;;;;5069152;28;20093;-61
2022/06/18 12:47:19;;;;;;;5.10;1.20;;;20.40;99.90;;;;;;5068137;28;20046;-61
2022/06/18 12:50:03;;;;;;;6.25;1.40;;;20.40;99.90;;;;;;5069443;28;20470;-72
2022/06/18 12:53:03;;;;;;;3.85;1.40;;;20.30;99.90;;;;;;5067022;28;20052;-67
2022/06/18 12:56:06;;;;;;;5.13;1.35;;;20.20;99.90;;;;;;5051327;28;20106;-62
2022/06/18 12:58:53;;;;;;;5.07;1.48;;;20.20;99.90;;;;;;5069943;28;20367;-59
2022/06/18 13:01:44;;;;;;;9.82;1.50;;;20.30;99.90;;;;;;5051649;28;20055;-57
2022/06/18 13:04:31;;;;;;;6.10;1.98;;;20.30;99.90;;;;;;5040436;28;20047;-59
2022/06/18 13:07:23;;;;;;;5.60;1.52;;;20.20;99.90;;;;;;5069228;28;20117;-63
2022/06/18 13:10:28;;;;;;;7.70;1.48;;;20.20;99.90;;;;;;5051866;28;20104;-63
2022/06/18 13:13:18;;;;;;;6.03;1.65;;;20.00;99.90;;;;;;5067000;28;20067;-65
2022/06/18 13:16:02;;;;;;;8.88;1.98;;;20.10;99.90;;;;;;5067577;28;20056;-64
2022/06/18 13:18:53;;;;;;;6.18;1.48;;;19.70;98.60;;;;;;5068258;28;20059;-57
2022/06/18 13:21:18;;;;;;;6.65;1.83;;;19.60;99.90;;;;;;5067061;28;20065;-61
2022/06/18 13:29:40;;;;;;;5.60;1.48;;;19.70;99.90;;;;;;5067863;28;20052;-61
2022/06/18 13:32:17;;;;;;;5.15;1.20;;;19.90;99.80;;;;;;5069045;28;20122;-64